Time;durP1;ratioP1;P1;durP2;ratioP2;P2;SDS_P1;SDS_P2;PMS_P1;PMS_P2;Temp;Humidity;BMP_temperature;BMP_pressure;BME280_temperature;BME280_humidity;BME280_pressure;Samples;Min_cycle;Max_cycle;Signal;HPM_P1;HPM_P2
2024/03/08 00:00:46;;;;;;;23.00;10.98;;;;;;;;;;5097499;28;20370;-66
2024/03/08 00:03:12;;;;;;;16.13;10.07;;;;;;;;;;5094226;28;20477;-66
2024/03/08 00:05:38;;;;;;;19.88;10.40;;;;;;;;;;5094073;28;20008;-65
2024/03/08 00:08:09;;;;;;;25.30;10.38;;;;;;;;;;5099323;28;20053;-66
2024/03/08 00:10:36;;;;;;;34.33;12.40;;;;;;;;;;5096804;27;20035;-68
2024/03/08 00:13:04;;;;;;;26.10;11.50;;;;;;;;;;5074734;28;20397;-65
2024/03/08 00:15:32;;;;;;;21.00;11.02;;;;;;;;;;5091609;28;20032;-66
2024/03/08 00:17:58;;;;;;;26.17;10.70;;;;;;;;;;5093447;28;20066;-66
2024/03/08 00:20:24;;;;;;;27.00;10.93;;;;;;;;;;5086753;28;20035;-66
2024/03/08 00:22:51;;;;;;;24.25;11.95;;;;;;;;;;5070185;28;20020;-66
2024/03/08 00:25:18;;;;;;;33.03;12.65;;;;;;;;;;5092803;28;20516;-66
2024/03/08 00:27:44;;;;;;;23.42;11.55;;;;;;;;;;5106322;28;20052;-66
2024/03/08 00:30:12;;;;;;;26.63;11.45;;;;;;;;;;5091335;27;20557;-65
2024/03/08 00:32:39;;;;;;;26.42;10.43;;;;;;;;;;5073524;28;20098;-66
2024/03/08 00:35:07;;;;;;;23.83;10.90;;;;;;;;;;5097501;28;20027;-66
2024/03/08 00:37:34;;;;;;;23.23;10.57;;;;;;;;;;5096932;28;20035;-67
2024/03/08 00:40:00;;;;;;;26.20;10.80;;;;;;;;;;5077937;28;20413;-71
2024/03/08 00:42:27;;;;;;;26.42;11.07;;;;;;;;;;5094983;28;20038;-71
2024/03/08 00:44:53;;;;;;;25.52;9.98;;;;;;;;;;5094909;28;20367;-71
2024/03/08 00:47:19;;;;;;;31.70;10.95;;;;;;;;;;5090328;28;20031;-72
2024/03/08 00:49:46;;;;;;;21.45;10.88;;;;;;;;;;5085241;28;20432;-71
2024/03/08 00:52:12;;;;;;;26.60;10.52;;;;;;;;;;5101659;28;20019;-71
2024/03/08 00:54:38;;;;;;;20.23;11.00;;;;;;;;;;5100344;28;20538;-72
2024/03/08 00:57:06;;;;;;;22.30;11.32;;;;;;;;;;5097998;28;20027;-71
2024/03/08 00:59:32;;;;;;;28.10;12.10;;;;;;;;;;5102078;28;20023;-71
2024/03/08 01:02:00;;;;;;;22.50;11.05;;;;;;;;;;5088483;28;20472;-71
2024/03/08 01:04:28;;;;;;;19.98;8.60;;;;;;;;;;5103223;28;20020;-70
2024/03/08 01:06:56;;;;;;;18.50;8.73;;;;;;;;;;5097142;28;20079;-71
2024/03/08 01:09:23;;;;;;;22.35;11.05;;;;;;;;;;5106565;28;20027;-72
2024/03/08 01:11:49;;;;;;;20.33;9.57;;;;;;;;;;5085061;28;20436;-72
2024/03/08 01:14:16;;;;;;;16.50;9.73;;;;;;;;;;5099191;27;20404;-70
2024/03/08 01:16:42;;;;;;;20.45;10.65;;;;;;;;;;5082040;28;20047;-71
2024/03/08 01:19:08;;;;;;;18.85;9.85;;;;;;;;;;5077247;28;20047;-71
2024/03/08 01:21:34;;;;;;;20.10;9.55;;;;;;;;;;5078672;28;20049;-71
2024/03/08 01:24:01;;;;;;;17.83;10.50;;;;;;;;;;5101832;28;20028;-71
2024/03/08 01:26:27;;;;;;;20.38;10.48;;;;;;;;;;5099655;28;20035;-71
2024/03/08 01:28:53;;;;;;;29.65;11.18;;;;;;;;;;5101824;28;20381;-71
2024/03/08 01:31:19;;;;;;;31.20;12.07;;;;;;;;;;5085370;28;20020;-70
2024/03/08 01:33:45;;;;;;;28.75;10.30;;;;;;;;;;5076903;28;20028;-71
2024/03/08 01:36:15;;;;;;;25.15;8.95;;;;;;;;;;5099273;27;20023;-70
2024/03/08 01:38:41;;;;;;;15.30;8.30;;;;;;;;;;5100383;28;20028;-71
2024/03/08 01:41:08;;;;;;;20.17;9.77;;;;;;;;;;5094942;28;20103;-71
2024/03/08 01:43:35;;;;;;;25.25;9.68;;;;;;;;;;5101653;28;20024;-70
2024/03/08 01:46:02;;;;;;;19.98;9.55;;;;;;;;;;5094425;28;20028;-71
2024/03/08 01:48:29;;;;;;;16.40;7.93;;;;;;;;;;5103190;28;20072;-72
2024/03/08 01:50:56;;;;;;;16.30;8.80;;;;;;;;;;5078170;28;20066;-71
2024/03/08 01:53:22;;;;;;;21.17;10.23;;;;;;;;;;5091771;28;20036;-71
2024/03/08 01:55:49;;;;;;;18.88;9.40;;;;;;;;;;5099548;28;20395;-71
2024/03/08 01:58:15;;;;;;;18.55;9.80;;;;;;;;;;5110743;27;20060;-71
2024/03/08 02:00:45;;;;;;;18.80;9.85;;;;;;;;;;5098774;28;20281;-71
2024/03/08 02:03:12;;;;;;;35.28;11.90;;;;;;;;;;5100210;28;20505;-70
2024/03/08 02:05:40;;;;;;;20.60;9.30;;;;;;;;;;5082359;28;20028;-72
2024/03/08 02:08:12;;;;;;;23.60;10.13;;;;;;;;;;5098758;28;20025;-72
2024/03/08 02:10:39;;;;;;;16.58;9.43;;;;;;;;;;5085607;28;20110;-72
2024/03/08 02:13:05;;;;;;;18.92;9.52;;;;;;;;;;5102921;28;20027;-71
2024/03/08 02:15:50;;;;;;;21.48;10.32;;;;;;;;;;5101304;27;20031;-71
2024/03/08 02:18:17;;;;;;;20.83;10.30;;;;;;;;;;5099337;27;20222;-70
2024/03/08 02:20:43;;;;;;;21.25;10.18;;;;;;;;;;5085306;28;20024;-72
2024/03/08 02:23:09;;;;;;;18.30;9.05;;;;;;;;;;5092460;28;20199;-71
2024/03/08 02:25:36;;;;;;;24.05;9.60;;;;;;;;;;5091086;28;20548;-72
2024/03/08 02:28:02;;;;;;;15.65;8.85;;;;;;;;;;5100009;28;20078;-71
2024/03/08 02:30:29;;;;;;;13.63;8.73;;;;;;;;;;5100382;28;20028;-71
2024/03/08 02:32:58;;;;;;;18.65;8.68;;;;;;;;;;5099738;28;20016;-71
2024/03/08 02:35:24;;;;;;;19.02;10.25;;;;;;;;;;5080931;28;20699;-71
2024/03/08 02:37:50;;;;;;;33.15;10.90;;;;;;;;;;5102823;28;20043;-71
2024/03/08 02:40:16;;;;;;;13.98;7.72;;;;;;;;;;5099211;28;20496;-71
2024/03/08 02:42:43;;;;;;;16.23;8.25;;;;;;;;;;5102819;28;20477;-71
2024/03/08 02:45:12;;;;;;;20.95;8.00;;;;;;;;;;5101958;28;20024;-71
2024/03/08 02:47:38;;;;;;;17.90;9.45;;;;;;;;;;5101243;28;20023;-73
2024/03/08 02:50:04;;;;;;;21.40;8.35;;;;;;;;;;5086959;28;20039;-71
2024/03/08 02:52:30;;;;;;;23.90;9.60;;;;;;;;;;5102936;28;20047;-71
2024/03/08 02:54:56;;;;;;;24.63;8.98;;;;;;;;;;5100373;27;20757;-71
2024/03/08 02:57:23;;;;;;;18.17;9.10;;;;;;;;;;5102688;28;20043;-71
2024/03/08 02:59:49;;;;;;;27.73;10.25;;;;;;;;;;5099630;28;20039;-72
2024/03/08 03:02:16;;;;;;;12.88;7.75;;;;;;;;;;5081953;28;20499;-71
2024/03/08 03:04:43;;;;;;;23.58;9.70;;;;;;;;;;5095163;27;20032;-72
2024/03/08 03:07:09;;;;;;;16.25;8.15;;;;;;;;;;5101927;28;20473;-72
2024/03/08 03:09:35;;;;;;;18.70;7.72;;;;;;;;;;5081975;28;20183;-71
2024/03/08 03:12:02;;;;;;;15.70;8.40;;;;;;;;;;5099308;27;20119;-71
2024/03/08 03:14:28;;;;;;;16.35;8.45;;;;;;;;;;5098370;28;20430;-72
2024/03/08 03:16:55;;;;;;;19.58;8.70;;;;;;;;;;5079565;28;20024;-71
2024/03/08 03:19:21;;;;;;;23.67;7.68;;;;;;;;;;5107950;27;20031;-72
2024/03/08 03:21:47;;;;;;;18.63;8.35;;;;;;;;;;5094979;28;20422;-71
2024/03/08 03:24:16;;;;;;;16.17;9.13;;;;;;;;;;5096666;28;20973;-71
2024/03/08 03:26:43;;;;;;;18.30;8.82;;;;;;;;;;5075327;28;20027;-71
2024/03/08 03:29:10;;;;;;;17.75;9.02;;;;;;;;;;5101951;28;20511;-71
2024/03/08 03:31:37;;;;;;;19.25;8.85;;;;;;;;;;5099693;28;20024;-71
2024/03/08 03:34:03;;;;;;;17.13;8.13;;;;;;;;;;5088453;27;20035;-71
2024/03/08 03:36:35;;;;;;;13.45;7.55;;;;;;;;;;5076593;28;20377;-70
2024/03/08 03:39:12;;;;;;;19.05;8.60;;;;;;;;;;5078583;28;20078;-70
2024/03/08 03:41:39;;;;;;;25.80;9.07;;;;;;;;;;5099268;28;20373;-70
2024/03/08 03:44:06;;;;;;;12.15;7.45;;;;;;;;;;5101152;28;20027;-71
2024/03/08 03:46:33;;;;;;;16.45;7.15;;;;;;;;;;5091599;28;20112;-70
2024/03/08 03:48:59;;;;;;;19.65;9.18;;;;;;;;;;5087843;28;20034;-69
2024/03/08 03:51:26;;;;;;;15.35;8.40;;;;;;;;;;5098149;28;20027;-70
2024/03/08 03:53:53;;;;;;;17.25;7.90;;;;;;;;;;5090206;28;20392;-71
2024/03/08 03:56:19;;;;;;;13.50;7.20;;;;;;;;;;5081094;28;20024;-71
2024/03/08 03:58:45;;;;;;;19.23;10.13;;;;;;;;;;5094513;27;20035;-70
2024/03/08 04:01:11;;;;;;;18.00;9.30;;;;;;;;;;5080168;28;20542;-71
2024/03/08 04:03:38;;;;;;;16.40;7.68;;;;;;;;;;5081662;28;20102;-70
2024/03/08 04:06:05;;;;;;;24.92;9.80;;;;;;;;;;5092491;27;20031;-71
2024/03/08 04:08:33;;;;;;;17.67;7.20;;;;;;;;;;5103211;28;20016;-71
2024/03/08 04:11:00;;;;;;;18.88;9.25;;;;;;;;;;5097409;28;20031;-71
2024/03/08 04:13:26;;;;;;;17.15;6.88;;;;;;;;;;5096714;28;20118;-72
2024/03/08 04:15:52;;;;;;;13.85;8.15;;;;;;;;;;5096492;28;20020;-70
2024/03/08 04:18:19;;;;;;;19.35;9.68;;;;;;;;;;5096592;28;20039;-70
2024/03/08 04:20:45;;;;;;;15.70;7.80;;;;;;;;;;5088812;27;20073;-70
2024/03/08 04:23:11;;;;;;;23.27;7.68;;;;;;;;;;5086256;28;20322;-71
2024/03/08 04:25:37;;;;;;;11.75;6.60;;;;;;;;;;5100392;28;20035;-70
2024/03/08 04:28:04;;;;;;;19.90;8.57;;;;;;;;;;5092548;28;20024;-70
2024/03/08 04:30:30;;;;;;;15.63;6.93;;;;;;;;;;5093302;28;20103;-71
2024/03/08 04:32:59;;;;;;;15.25;7.38;;;;;;;;;;5075725;28;20027;-71
2024/03/08 04:35:25;;;;;;;10.73;7.97;;;;;;;;;;5096747;28;20032;-70
2024/03/08 04:37:51;;;;;;;16.38;6.38;;;;;;;;;;5101645;28;20476;-71
2024/03/08 04:40:21;;;;;;;15.25;7.47;;;;;;;;;;5094381;28;20024;-71
2024/03/08 04:42:50;;;;;;;17.92;8.82;;;;;;;;;;5095634;28;20074;-71
2024/03/08 04:45:16;;;;;;;14.93;7.38;;;;;;;;;;5093979;28;20478;-71
2024/03/08 04:47:43;;;;;;;22.70;7.30;;;;;;;;;;5094323;28;20031;-71
2024/03/08 04:50:09;;;;;;;21.45;8.68;;;;;;;;;;5096255;28;20032;-71
2024/03/08 04:52:35;;;;;;;11.32;6.88;;;;;;;;;;5088090;28;20028;-71
2024/03/08 04:55:04;;;;;;;20.40;7.20;;;;;;;;;;5088641;28;20515;-71
2024/03/08 04:57:31;;;;;;;15.95;7.25;;;;;;;;;;5090960;28;20043;-70
2024/03/08 04:59:58;;;;;;;19.02;8.27;;;;;;;;;;5090401;28;20027;-71
2024/03/08 05:02:25;;;;;;;12.57;8.23;;;;;;;;;;5096782;28;20023;-70
2024/03/08 05:04:51;;;;;;;24.02;8.93;;;;;;;;;;5099797;28;20020;-71
2024/03/08 05:07:20;;;;;;;14.73;7.70;;;;;;;;;;5081837;28;20031;-71
2024/03/08 05:09:51;;;;;;;15.60;7.40;;;;;;;;;;5094305;28;20058;-70
2024/03/08 05:12:22;;;;;;;14.57;7.95;;;;;;;;;;5105606;28;20043;-71
2024/03/08 05:14:49;;;;;;;20.98;8.15;;;;;;;;;;5096830;28;20085;-71
2024/03/08 05:17:16;;;;;;;17.75;8.13;;;;;;;;;;5097837;28;20060;-71
2024/03/08 05:19:43;;;;;;;13.93;6.65;;;;;;;;;;5087981;28;20020;-70
2024/03/08 05:22:09;;;;;;;13.90;7.45;;;;;;;;;;5104278;28;20493;-70
2024/03/08 05:24:35;;;;;;;10.88;6.20;;;;;;;;;;5087435;28;20031;-71
2024/03/08 05:27:03;;;;;;;13.77;7.35;;;;;;;;;;5091665;28;20487;-71
2024/03/08 05:29:29;;;;;;;13.77;6.95;;;;;;;;;;5074943;28;20047;-71
2024/03/08 05:31:57;;;;;;;12.93;6.30;;;;;;;;;;5095691;28;20028;-70
2024/03/08 05:34:24;;;;;;;16.88;6.55;;;;;;;;;;5084937;28;20024;-71
2024/03/08 05:36:50;;;;;;;12.73;7.32;;;;;;;;;;5096102;28;20063;-70
2024/03/08 05:39:17;;;;;;;15.35;7.97;;;;;;;;;;5098742;28;20039;-71
2024/03/08 05:41:44;;;;;;;14.00;5.57;;;;;;;;;;5100401;28;20024;-71
2024/03/08 05:44:11;;;;;;;22.88;8.25;;;;;;;;;;5093096;28;20056;-71
2024/03/08 05:46:37;;;;;;;14.18;7.40;;;;;;;;;;5106681;28;20034;-71
2024/03/08 05:49:05;;;;;;;13.00;7.85;;;;;;;;;;5101055;28;20105;-71
2024/03/08 05:51:41;;;;;;;15.00;7.03;;;;;;;;;;5106551;27;20028;-71
2024/03/08 05:54:09;;;;;;;12.90;7.10;;;;;;;;;;5104506;28;20048;-72
2024/03/08 05:56:36;;;;;;;13.90;8.80;;;;;;;;;;5098149;28;20445;-71
2024/03/08 05:59:02;;;;;;;21.45;7.75;;;;;;;;;;5091564;28;20051;-71
2024/03/08 06:01:29;;;;;;;21.75;7.18;;;;;;;;;;5094205;27;20028;-72
2024/03/08 06:03:56;;;;;;;15.38;6.70;;;;;;;;;;5105058;27;20437;-71
2024/03/08 06:06:23;;;;;;;29.50;8.52;;;;;;;;;;5086382;28;20027;-71
2024/03/08 06:08:50;;;;;;;22.20;9.40;;;;;;;;;;5093372;28;20427;-71
2024/03/08 06:11:17;;;;;;;12.88;7.75;;;;;;;;;;5090837;28;20036;-70
2024/03/08 06:13:44;;;;;;;16.75;7.22;;;;;;;;;;5093024;28;20273;-71
2024/03/08 06:16:10;;;;;;;13.93;6.85;;;;;;;;;;5100014;28;20632;-70
2024/03/08 06:18:42;;;;;;;16.35;7.80;;;;;;;;;;5106179;28;20366;-70
2024/03/08 06:21:17;;;;;;;14.55;6.72;;;;;;;;;;5087116;28;20023;-71
2024/03/08 06:23:43;;;;;;;10.05;6.97;;;;;;;;;;5102621;28;20068;-71
2024/03/08 06:26:09;;;;;;;17.42;8.38;;;;;;;;;;5094892;27;20546;-70
2024/03/08 06:28:35;;;;;;;17.05;8.70;;;;;;;;;;5087891;27;20043;-71
2024/03/08 06:31:02;;;;;;;16.70;7.03;;;;;;;;;;5099133;28;20445;-70
2024/03/08 06:33:29;;;;;;;18.55;7.68;;;;;;;;;;5092208;28;20031;-70
2024/03/08 06:35:58;;;;;;;14.05;7.60;;;;;;;;;;5097676;28;20031;-71
2024/03/08 06:38:24;;;;;;;9.13;6.25;;;;;;;;;;5100931;28;20047;-70
2024/03/08 06:40:52;;;;;;;13.85;6.53;;;;;;;;;;5100770;28;20030;-70
2024/03/08 06:43:19;;;;;;;16.10;7.68;;;;;;;;;;5099259;28;20035;-70
2024/03/08 06:45:48;;;;;;;15.02;7.72;;;;;;;;;;5078935;28;20057;-70
2024/03/08 06:48:18;;;;;;;11.93;7.10;;;;;;;;;;5080133;28;20035;-70
2024/03/08 06:50:45;;;;;;;21.65;7.65;;;;;;;;;;5104929;28;20080;-69
2024/03/08 06:53:12;;;;;;;14.93;6.50;;;;;;;;;;5098746;28;20028;-71
2024/03/08 06:55:38;;;;;;;19.25;7.97;;;;;;;;;;5093808;28;20503;-73
2024/03/08 06:58:04;;;;;;;14.30;8.07;;;;;;;;;;5078784;28;20039;-72
2024/03/08 07:00:30;;;;;;;16.95;8.23;;;;;;;;;;5099217;28;20051;-73
2024/03/08 07:03:03;;;;;;;16.63;7.75;;;;;;;;;;5090101;28;20409;-72
2024/03/08 07:05:30;;;;;;;11.85;6.25;;;;;;;;;;5088453;28;20043;-72
2024/03/08 07:07:56;;;;;;;15.60;6.90;;;;;;;;;;5099954;28;20103;-72
2024/03/08 07:10:25;;;;;;;16.45;6.70;;;;;;;;;;5101268;28;20972;-72
2024/03/08 07:12:55;;;;;;;11.93;5.90;;;;;;;;;;5097978;28;20274;-72
2024/03/08 07:15:23;;;;;;;15.25;7.13;;;;;;;;;;5096347;27;20036;-72
2024/03/08 07:17:49;;;;;;;13.00;7.82;;;;;;;;;;5099946;28;20043;-72
2024/03/08 07:20:18;;;;;;;15.80;7.55;;;;;;;;;;5091426;28;20544;-72
2024/03/08 07:22:47;;;;;;;10.05;5.63;;;;;;;;;;5093829;28;20023;-73
2024/03/08 07:25:20;;;;;;;11.95;7.63;;;;;;;;;;5087662;28;20031;-72
2024/03/08 07:27:51;;;;;;;15.32;6.82;;;;;;;;;;5109492;28;20023;-72
2024/03/08 07:30:52;;;;;;;16.20;7.55;;;;;;;;;;5106835;28;20020;-73
2024/03/08 07:33:03;;;;;;;13.43;8.77;;;;;;;;;;5098066;28;20093;-72
2024/03/08 07:35:32;;;;;;;18.88;8.73;;;;;;;;;;5103254;28;20032;-72
2024/03/08 07:37:59;;;;;;;18.77;9.10;;;;;;;;;;5107409;27;20619;-73
2024/03/08 07:40:26;;;;;;;14.68;7.90;;;;;;;;;;5105320;28;20022;-72
2024/03/08 07:42:52;;;;;;;16.77;8.05;;;;;;;;;;5104842;28;20028;-72
2024/03/08 07:45:18;;;;;;;15.20;7.97;;;;;;;;;;5091923;28;20032;-72
2024/03/08 07:47:45;;;;;;;19.08;8.02;;;;;;;;;;5101294;28;20102;-72
2024/03/08 07:50:15;;;;;;;12.93;6.95;;;;;;;;;;5098756;28;20080;-72
2024/03/08 07:52:42;;;;;;;17.65;7.80;;;;;;;;;;5100792;28;20020;-71
2024/03/08 07:55:08;;;;;;;18.63;9.35;;;;;;;;;;5098010;27;20127;-72
2024/03/08 07:57:34;;;;;;;20.90;8.32;;;;;;;;;;5094004;28;20028;-72
2024/03/08 08:00:00;;;;;;;18.52;7.80;;;;;;;;;;5091160;28;20031;-73
2024/03/08 08:02:27;;;;;;;15.50;8.27;;;;;;;;;;5108516;28;20507;-73
2024/03/08 08:04:54;;;;;;;14.73;7.85;;;;;;;;;;5103424;28;20386;-71
2024/03/08 08:07:20;;;;;;;16.60;7.97;;;;;;;;;;5103890;28;20038;-72
2024/03/08 08:09:46;;;;;;;13.13;7.45;;;;;;;;;;5091033;28;20393;-72
2024/03/08 08:12:12;;;;;;;15.02;8.70;;;;;;;;;;5098983;28;20027;-72
2024/03/08 08:14:39;;;;;;;13.63;8.48;;;;;;;;;;5099977;28;20028;-72
2024/03/08 08:17:05;;;;;;;25.73;7.32;;;;;;;;;;5096894;28;20458;-72
2024/03/08 08:19:31;;;;;;;15.75;7.93;;;;;;;;;;5107380;28;20062;-72
2024/03/08 08:21:58;;;;;;;18.25;7.72;;;;;;;;;;5100063;28;20404;-72
2024/03/08 08:24:24;;;;;;;13.68;7.95;;;;;;;;;;5081776;28;20024;-72
2024/03/08 08:26:50;;;;;;;12.50;6.93;;;;;;;;;;5098099;28;20023;-72
2024/03/08 08:29:16;;;;;;;16.15;8.43;;;;;;;;;;5095345;28;20035;-72
2024/03/08 08:31:43;;;;;;;14.73;8.00;;;;;;;;;;5092221;28;20069;-71
2024/03/08 08:34:11;;;;;;;12.30;7.03;;;;;;;;;;5097230;28;20023;-72
2024/03/08 08:36:41;;;;;;;17.25;7.18;;;;;;;;;;5092512;28;20055;-73
2024/03/08 08:39:13;;;;;;;17.70;7.53;;;;;;;;;;5100306;28;20042;-72
2024/03/08 08:41:41;;;;;;;9.68;6.22;;;;;;;;;;5093197;28;20019;-73
2024/03/08 08:44:12;;;;;;;11.85;6.72;;;;;;;;;;5102214;28;20051;-72
2024/03/08 08:46:40;;;;;;;11.50;6.70;;;;;;;;;;5104304;28;20027;-72
2024/03/08 08:49:10;;;;;;;13.13;6.88;;;;;;;;;;5107243;28;20028;-73
2024/03/08 08:51:36;;;;;;;18.20;7.43;;;;;;;;;;5087493;28;20034;-72
2024/03/08 08:54:02;;;;;;;16.60;6.80;;;;;;;;;;5093481;28;20035;-73
2024/03/08 08:56:28;;;;;;;16.48;7.03;;;;;;;;;;5106862;28;20023;-72
2024/03/08 08:58:55;;;;;;;12.82;7.38;;;;;;;;;;5074944;28;20392;-72
2024/03/08 09:01:21;;;;;;;11.13;7.32;;;;;;;;;;5099118;28;20073;-74
2024/03/08 09:03:47;;;;;;;17.45;8.32;;;;;;;;;;5094855;28;20366;-72
2024/03/08 09:06:13;;;;;;;13.35;7.57;;;;;;;;;;5089827;28;20552;-73
2024/03/08 09:08:40;;;;;;;16.95;8.35;;;;;;;;;;5090519;28;20052;-73
2024/03/08 09:11:06;;;;;;;14.00;7.57;;;;;;;;;;5102192;28;20028;-73
2024/03/08 09:13:33;;;;;;;18.02;7.85;;;;;;;;;;5102645;28;20027;-73
2024/03/08 09:16:00;;;;;;;15.20;8.30;;;;;;;;;;5073411;28;20067;-72
2024/03/08 09:18:26;;;;;;;14.52;7.63;;;;;;;;;;5106266;28;20431;-73
2024/03/08 09:20:53;;;;;;;21.23;8.50;;;;;;;;;;5103277;28;20019;-72
2024/03/08 09:23:23;;;;;;;15.38;8.40;;;;;;;;;;5103028;28;20024;-73
2024/03/08 09:25:50;;;;;;;11.85;7.25;;;;;;;;;;5098545;28;20023;-72
2024/03/08 09:28:16;;;;;;;16.83;6.75;;;;;;;;;;5106834;28;20022;-73
2024/03/08 09:30:42;;;;;;;11.15;6.28;;;;;;;;;;5104560;28;20680;-72
2024/03/08 09:33:09;;;;;;;16.55;8.75;;;;;;;;;;5090394;28;20026;-72
2024/03/08 09:35:35;;;;;;;19.15;10.23;;;;;;;;;;5110893;28;20043;-73
2024/03/08 09:38:03;;;;;;;11.55;8.27;;;;;;;;;;5092532;28;20665;-72
2024/03/08 09:40:29;;;;;;;13.15;7.85;;;;;;;;;;5103264;28;20035;-72
2024/03/08 09:42:57;;;;;;;17.42;8.25;;;;;;;;;;5110610;28;20078;-73
2024/03/08 09:45:24;;;;;;;16.02;8.63;;;;;;;;;;5104001;28;20460;-73
2024/03/08 09:47:51;;;;;;;18.30;9.30;;;;;;;;;;5104189;27;20431;-72
2024/03/08 09:50:18;;;;;;;22.52;7.85;;;;;;;;;;5106306;28;20443;-72
2024/03/08 09:52:46;;;;;;;15.40;8.35;;;;;;;;;;5110186;28;20565;-72
2024/03/08 09:55:13;;;;;;;14.20;7.28;;;;;;;;;;5103386;28;20060;-72
2024/03/08 09:58:16;;;;;;;19.67;9.20;;;;;;;;;;5099241;28;20039;-72
2024/03/08 10:00:30;;;;;;;12.90;7.35;;;;;;;;;;5118137;27;20115;-72
2024/03/08 10:03:00;;;;;;;18.38;8.80;;;;;;;;;;5103210;28;20039;-72
2024/03/08 10:05:27;;;;;;;18.00;8.77;;;;;;;;;;5086001;28;20062;-72
2024/03/08 10:07:53;;;;;;;14.98;8.18;;;;;;;;;;5093483;28;20052;-72
2024/03/08 10:10:19;;;;;;;16.33;8.43;;;;;;;;;;5100290;28;20016;-72
2024/03/08 10:12:46;;;;;;;20.17;8.80;;;;;;;;;;5096751;28;20027;-72
2024/03/08 10:15:16;;;;;;;15.25;8.98;;;;;;;;;;5103608;28;20027;-72
2024/03/08 10:17:43;;;;;;;17.83;8.73;;;;;;;;;;5101198;28;20114;-72
2024/03/08 10:20:18;;;;;;;19.27;8.57;;;;;;;;;;5104706;28;20031;-73
2024/03/08 10:22:44;;;;;;;18.13;9.15;;;;;;;;;;5114066;27;20461;-71
2024/03/08 10:25:14;;;;;;;18.90;9.40;;;;;;;;;;5106580;28;20103;-73
2024/03/08 10:27:43;;;;;;;14.15;7.45;;;;;;;;;;5106857;28;20103;-73
2024/03/08 10:30:20;;;;;;;18.15;8.52;;;;;;;;;;5108842;28;20034;-72
2024/03/08 10:32:46;;;;;;;22.90;11.23;;;;;;;;;;5102026;28;20027;-72
2024/03/08 10:35:13;;;;;;;17.70;9.98;;;;;;;;;;5110540;28;20098;-72
2024/03/08 10:37:46;;;;;;;17.90;10.55;;;;;;;;;;5097112;28;20039;-73
2024/03/08 10:40:19;;;;;;;26.27;9.35;;;;;;;;;;5108882;27;20080;-72
2024/03/08 10:42:57;;;;;;;13.50;8.00;;;;;;;;;;5087743;28;20050;-72
2024/03/08 10:45:23;;;;;;;14.75;8.60;;;;;;;;;;5086080;28;20053;-72
2024/03/08 10:47:50;;;;;;;15.05;8.30;;;;;;;;;;5097034;28;20024;-72
2024/03/08 10:50:21;;;;;;;20.98;9.02;;;;;;;;;;5108908;28;20509;-73
2024/03/08 10:52:51;;;;;;;17.55;7.40;;;;;;;;;;5098876;28;20560;-72
2024/03/08 10:55:20;;;;;;;18.63;8.18;;;;;;;;;;5091701;27;20255;-72
2024/03/08 10:57:51;;;;;;;13.68;8.00;;;;;;;;;;5094512;28;20077;-72
2024/03/08 11:00:18;;;;;;;23.33;10.10;;;;;;;;;;5094597;28;20346;-72
2024/03/08 11:02:45;;;;;;;20.95;11.00;;;;;;;;;;5100420;28;20020;-72
2024/03/08 11:05:13;;;;;;;17.60;8.85;;;;;;;;;;5086367;28;20036;-72
2024/03/08 11:07:42;;;;;;;18.20;7.93;;;;;;;;;;5080562;28;20020;-72
2024/03/08 11:10:11;;;;;;;21.02;9.05;;;;;;;;;;5094367;28;20845;-74
2024/03/08 11:12:38;;;;;;;16.73;7.00;;;;;;;;;;5100587;28;20038;-72
2024/03/08 11:15:13;;;;;;;17.10;8.13;;;;;;;;;;5091112;28;20020;-72
2024/03/08 11:17:39;;;;;;;;;;;;;;;;;;5099693;28;20468;-72
2024/03/08 11:20:05;;;;;;;;;;;;;;;;;;5095187;28;19965;-73
2024/03/08 11:22:34;;;;;;;15.68;8.60;;;;;;;;;;5085461;28;19965;-72
2024/03/08 11:25:09;;;;;;;15.50;8.73;;;;;;;;;;5106096;28;20039;-71
2024/03/08 11:27:36;;;;;;;13.77;8.32;;;;;;;;;;5103370;28;20066;-72
2024/03/08 11:30:11;;;;;;;15.13;7.25;;;;;;;;;;5086945;28;21576;-73
2024/03/08 11:32:38;;;;;;;16.23;8.68;;;;;;;;;;5101612;28;20020;-72
2024/03/08 11:35:07;;;;;;;18.10;9.35;;;;;;;;;;5096066;28;20114;-72
2024/03/08 11:37:35;;;;;;;16.25;8.20;;;;;;;;;;5092684;28;20044;-72
2024/03/08 11:40:04;;;;;;;17.63;9.35;;;;;;;;;;5073807;28;20051;-72
2024/03/08 11:42:31;;;;;;;18.13;9.40;;;;;;;;;;5071054;28;20024;-72
2024/03/08 11:44:57;;;;;;;17.67;9.65;;;;;;;;;;5101729;28;20030;-72
2024/03/08 11:47:26;;;;;;;21.25;9.65;;;;;;;;;;5073052;28;20120;-72
2024/03/08 11:49:53;;;;;;;19.20;8.68;;;;;;;;;;5094157;28;20489;-72
2024/03/08 11:52:19;;;;;;;18.92;8.73;;;;;;;;;;5095576;28;20039;-73
2024/03/08 11:55:05;;;;;;;24.15;9.70;;;;;;;;;;5099460;28;20076;-72
2024/03/08 11:57:31;;;;;;;22.58;11.50;;;;;;;;;;5103456;28;20489;-72
2024/03/08 12:00:06;;;;;;;17.20;8.68;;;;;;;;;;5098613;28;20031;-72
2024/03/08 12:02:35;;;;;;;12.93;8.23;;;;;;;;;;5101988;28;20046;-72
2024/03/08 12:05:03;;;;;;;17.60;9.50;;;;;;;;;;5091814;28;20028;-72
2024/03/08 12:07:32;;;;;;;19.83;10.73;;;;;;;;;;5079637;28;20042;-72
2024/03/08 12:10:17;;;;;;;15.85;7.85;;;;;;;;;;5087897;28;20059;-72
2024/03/08 12:12:51;;;;;;;22.73;9.53;;;;;;;;;;5072562;28;20111;-73
2024/03/08 12:15:17;;;;;;;15.80;7.82;;;;;;;;;;5077476;28;20289;-73
2024/03/08 12:17:44;;;;;;;18.55;8.63;;;;;;;;;;5107646;28;20102;-73
2024/03/08 12:20:17;;;;;;;18.55;9.18;;;;;;;;;;5102421;28;20471;-73
2024/03/08 12:22:44;;;;;;;26.45;10.20;;;;;;;;;;5099286;28;20031;-72
2024/03/08 12:25:14;;;;;;;21.75;9.80;;;;;;;;;;5091584;28;20098;-72
2024/03/08 12:27:41;;;;;;;18.38;7.68;;;;;;;;;;5090476;28;20381;-72
2024/03/08 12:30:21;;;;;;;22.65;9.85;;;;;;;;;;5094764;27;20036;-72
2024/03/08 12:32:53;;;;;;;13.40;7.13;;;;;;;;;;5089069;28;20389;-72
2024/03/08 12:35:22;;;;;;;20.50;9.68;;;;;;;;;;5095203;28;20088;-72
2024/03/08 12:37:51;;;;;;;20.30;9.40;;;;;;;;;;5099617;27;20193;-72
2024/03/08 12:40:17;;;;;;;20.25;8.50;;;;;;;;;;5079927;28;20369;-72
2024/03/08 12:42:47;;;;;;;14.90;7.95;;;;;;;;;;5087051;28;20121;-73
2024/03/08 12:45:15;;;;;;;19.73;9.88;;;;;;;;;;5085094;28;20486;-72
2024/03/08 12:47:41;;;;;;;17.10;9.55;;;;;;;;;;5079395;28;20030;-74
2024/03/08 12:50:09;;;;;;;16.20;8.45;;;;;;;;;;5103430;28;20027;-72
2024/03/08 12:52:36;;;;;;;15.45;9.38;;;;;;;;;;5100841;28;20027;-73
2024/03/08 12:55:02;;;;;;;20.00;10.23;;;;;;;;;;5101126;28;20027;-73
2024/03/08 12:57:31;;;;;;;24.33;9.45;;;;;;;;;;5097648;28;20179;-73
2024/03/08 12:59:57;;;;;;;18.17;10.05;;;;;;;;;;5084916;28;20118;-73
2024/03/08 13:02:23;;;;;;;22.05;9.63;;;;;;;;;;5086878;28;20023;-72
2024/03/08 13:05:00;;;;;;;20.35;9.23;;;;;;;;;;5091540;28;20016;-72
2024/03/08 13:07:27;;;;;;;21.58;10.65;;;;;;;;;;5098164;28;20020;-72
2024/03/08 13:09:54;;;;;;;20.90;9.88;;;;;;;;;;5101390;28;20039;-72
2024/03/08 13:12:21;;;;;;;23.83;12.35;;;;;;;;;;5088193;28;20035;-72
2024/03/08 13:14:47;;;;;;;21.35;9.35;;;;;;;;;;5100734;28;20375;-72
2024/03/08 13:17:18;;;;;;;22.52;9.05;;;;;;;;;;5095698;28;20028;-72
2024/03/08 13:19:45;;;;;;;26.48;9.50;;;;;;;;;;5098540;28;20024;-72
2024/03/08 13:22:16;;;;;;;15.45;8.55;;;;;;;;;;5092739;28;20106;-72
2024/03/08 13:24:45;;;;;;;26.30;8.43;;;;;;;;;;5097558;28;20102;-73
2024/03/08 13:27:20;;;;;;;14.52;8.35;;;;;;;;;;5099679;28;20038;-72
2024/03/08 13:29:49;;;;;;;22.05;9.00;;;;;;;;;;5074645;28;20035;-72
2024/03/08 13:32:20;;;;;;;15.80;7.18;;;;;;;;;;5075543;28;20040;-72
2024/03/08 13:34:53;;;;;;;19.58;9.50;;;;;;;;;;5080399;28;20044;-73
2024/03/08 13:37:20;;;;;;;22.75;10.15;;;;;;;;;;5084191;28;20138;-73
2024/03/08 13:39:46;;;;;;;24.65;10.23;;;;;;;;;;5095545;28;20031;-72
2024/03/08 13:42:19;;;;;;;19.42;9.10;;;;;;;;;;5097435;28;20024;-72
2024/03/08 13:44:46;;;;;;;14.27;9.60;;;;;;;;;;5081304;28;20024;-73
2024/03/08 13:47:13;;;;;;;20.98;9.98;;;;;;;;;;5090565;28;20173;-72
2024/03/08 13:49:40;;;;;;;15.95;9.27;;;;;;;;;;5098614;28;20105;-73
2024/03/08 13:52:08;;;;;;;17.60;8.80;;;;;;;;;;5102191;28;20388;-72
2024/03/08 13:54:35;;;;;;;18.15;10.00;;;;;;;;;;5081763;28;20027;-72
2024/03/08 13:57:03;;;;;;;18.08;8.80;;;;;;;;;;5094531;28;20397;-72
2024/03/08 13:59:29;;;;;;;20.00;9.85;;;;;;;;;;5089039;28;20028;-74
2024/03/08 14:01:57;;;;;;;20.33;8.50;;;;;;;;;;5104221;28;20024;-72
2024/03/08 14:04:24;;;;;;;15.27;8.57;;;;;;;;;;5100051;28;20031;-73
2024/03/08 14:06:56;;;;;;;16.13;9.85;;;;;;;;;;5092371;28;20022;-72
2024/03/08 14:09:24;;;;;;;19.40;7.88;;;;;;;;;;5110453;28;20442;-74
2024/03/08 14:11:53;;;;;;;19.38;9.35;;;;;;;;;;5092058;28;20035;-72
2024/03/08 14:14:20;;;;;;;17.13;9.02;;;;;;;;;;5100036;28;20479;-72
2024/03/08 14:16:47;;;;;;;25.60;10.88;;;;;;;;;;5098219;28;20396;-72
2024/03/08 14:19:15;;;;;;;17.30;8.50;;;;;;;;;;5108343;28;20039;-72
2024/03/08 14:21:43;;;;;;;23.58;10.77;;;;;;;;;;5090261;28;20023;-72
2024/03/08 14:24:09;;;;;;;23.42;10.45;;;;;;;;;;5082090;28;20046;-73
2024/03/08 14:26:38;;;;;;;19.83;9.80;;;;;;;;;;5106125;28;20484;-72
2024/03/08 14:29:05;;;;;;;13.32;7.75;;;;;;;;;;5094640;28;20031;-73
2024/03/08 14:31:31;;;;;;;20.60;10.82;;;;;;;;;;5097467;27;20032;-72